sensor_id;sensor_type;location;lat;lon;timestamp;pressure;altitude;pressure_sealevel;temperature;humidity
16694;BME280;39538;52.196;9.892;2022-12-28T00:00:15;100876.97;;;4.36;80.82
16694;BME280;39538;52.196;9.892;2022-12-28T00:02:41;100871.84;;;4.33;81.15
16694;BME280;39538;52.196;9.892;2022-12-28T00:05:08;100864.31;;;4.23;81.30
16694;BME280;39538;52.196;9.892;2022-12-28T00:07:35;100863.53;;;4.21;81.34
16694;BME280;39538;52.196;9.892;2022-12-28T00:10:01;100861.59;;;4.27;81.47
16694;BME280;39538;52.196;9.892;2022-12-28T00:12:28;100851.44;;;4.17;81.70
16694;BME280;39538;52.196;9.892;2022-12-28T00:14:58;100842.63;;;4.18;82.26
16694;BME280;39538;52.196;9.892;2022-12-28T00:17:25;100838.34;;;4.16;81.90
16694;BME280;39538;52.196;9.892;2022-12-28T00:19:51;100835.53;;;4.20;82.05
16694;BME280;39538;52.196;9.892;2022-12-28T00:22:18;100825.88;;;4.21;82.26
16694;BME280;39538;52.196;9.892;2022-12-28T00:24:45;100818.31;;;4.13;82.04
16694;BME280;39538;52.196;9.892;2022-12-28T00:27:11;100810.78;;;4.04;82.49
16694;BME280;39538;52.196;9.892;2022-12-28T00:29:38;100810.09;;;3.99;82.74
16694;BME280;39538;52.196;9.892;2022-12-28T00:32:06;100809.00;;;4.05;82.63
16694;BME280;39538;52.196;9.892;2022-12-28T00:34:33;100810.81;;;4.03;82.48
16694;BME280;39538;52.196;9.892;2022-12-28T00:37:00;100802.94;;;4.03;82.52
16694;BME280;39538;52.196;9.892;2022-12-28T00:39:26;100798.84;;;3.95;82.76
16694;BME280;39538;52.196;9.892;2022-12-28T00:41:53;100791.81;;;3.96;82.69
16694;BME280;39538;52.196;9.892;2022-12-28T00:44:19;100798.91;;;3.94;82.98
16694;BME280;39538;52.196;9.892;2022-12-28T00:46:46;100799.59;;;3.99;82.88
16694;BME280;39538;52.196;9.892;2022-12-28T00:49:14;100786.75;;;3.91;82.85
16694;BME280;39538;52.196;9.892;2022-12-28T00:51:41;100784.25;;;3.88;82.92
16694;BME280;39538;52.196;9.892;2022-12-28T00:54:08;100789.44;;;3.90;82.85
16694;BME280;39538;52.196;9.892;2022-12-28T00:56:34;100776.41;;;3.87;82.80
16694;BME280;39538;52.196;9.892;2022-12-28T00:59:01;100774.41;;;3.93;82.36
16694;BME280;39538;52.196;9.892;2022-12-28T01:01:28;100776.94;;;3.96;82.44
16694;BME280;39538;52.196;9.892;2022-12-28T01:03:55;100773.44;;;3.96;82.09
16694;BME280;39538;52.196;9.892;2022-12-28T01:06:25;100766.47;;;3.95;81.98
16694;BME280;39538;52.196;9.892;2022-12-28T01:08:52;100750.84;;;3.92;82.21
16694;BME280;39538;52.196;9.892;2022-12-28T01:11:20;100746.50;;;3.91;81.89
16694;BME280;39538;52.196;9.892;2022-12-28T01:13:48;100740.44;;;3.89;82.32
16694;BME280;39538;52.196;9.892;2022-12-28T01:16:18;100738.97;;;3.82;83.08
16694;BME280;39538;52.196;9.892;2022-12-28T01:18:45;100729.06;;;3.66;83.71
16694;BME280;39538;52.196;9.892;2022-12-28T01:21:13;100736.03;;;3.67;84.06
16694;BME280;39538;52.196;9.892;2022-12-28T01:23:42;100718.44;;;3.69;84.10
16694;BME280;39538;52.196;9.892;2022-12-28T01:26:09;100719.28;;;3.70;84.01
16694;BME280;39538;52.196;9.892;2022-12-28T01:28:36;100714.31;;;3.64;84.49
16694;BME280;39538;52.196;9.892;2022-12-28T01:31:03;100706.97;;;3.72;84.10
16694;BME280;39538;52.196;9.892;2022-12-28T01:33:30;100695.72;;;3.68;84.50
16694;BME280;39538;52.196;9.892;2022-12-28T01:35:57;100706.13;;;3.71;84.57
16694;BME280;39538;52.196;9.892;2022-12-28T01:38:23;100692.81;;;3.76;84.33
16694;BME280;39538;52.196;9.892;2022-12-28T01:40:51;100685.91;;;3.73;84.02
16694;BME280;39538;52.196;9.892;2022-12-28T01:43:32;100694.00;;;3.89;83.48
16694;BME280;39538;52.196;9.892;2022-12-28T01:46:00;100688.56;;;3.94;83.14
16694;BME280;39538;52.196;9.892;2022-12-28T01:48:26;100681.00;;;4.08;82.61
16694;BME280;39538;52.196;9.892;2022-12-28T01:50:53;100685.19;;;4.12;82.13
16694;BME280;39538;52.196;9.892;2022-12-28T01:53:20;100684.34;;;4.12;81.85
16694;BME280;39538;52.196;9.892;2022-12-28T01:55:51;100674.56;;;4.15;81.91
16694;BME280;39538;52.196;9.892;2022-12-28T01:58:20;100668.53;;;4.13;82.32
16694;BME280;39538;52.196;9.892;2022-12-28T02:00:48;100660.69;;;4.12;82.18
16694;BME280;39538;52.196;9.892;2022-12-28T02:03:17;100651.53;;;4.22;81.98
16694;BME280;39538;52.196;9.892;2022-12-28T02:05:48;100643.50;;;4.25;81.68
16694;BME280;39538;52.196;9.892;2022-12-28T02:08:21;100638.09;;;4.28;81.45
16694;BME280;39538;52.196;9.892;2022-12-28T02:10:51;100627.72;;;4.25;81.79
16694;BME280;39538;52.196;9.892;2022-12-28T02:13:18;100620.63;;;4.27;81.57
16694;BME280;39538;52.196;9.892;2022-12-28T02:15:46;100616.19;;;4.29;82.04
16694;BME280;39538;52.196;9.892;2022-12-28T02:18:15;100611.72;;;4.31;81.51
16694;BME280;39538;52.196;9.892;2022-12-28T02:20:56;100616.09;;;4.31;81.90
16694;BME280;39538;52.196;9.892;2022-12-28T02:23:41;100615.78;;;4.38;81.70
16694;BME280;39538;52.196;9.892;2022-12-28T02:26:35;100603.59;;;4.36;81.93
16694;BME280;39538;52.196;9.892;2022-12-28T02:29:33;100606.22;;;4.36;82.09
16694;BME280;39538;52.196;9.892;2022-12-28T02:32:12;100601.09;;;4.33;82.07
16694;BME280;39538;52.196;9.892;2022-12-28T02:34:46;100588.75;;;4.35;81.82
16694;BME280;39538;52.196;9.892;2022-12-28T02:37:17;100595.66;;;4.37;82.28
16694;BME280;39538;52.196;9.892;2022-12-28T02:39:47;100593.66;;;4.42;82.03
16694;BME280;39538;52.196;9.892;2022-12-28T02:42:20;100582.44;;;4.39;81.78
16694;BME280;39538;52.196;9.892;2022-12-28T02:44:50;100571.78;;;4.42;81.76
16694;BME280;39538;52.196;9.892;2022-12-28T02:47:34;100561.06;;;4.47;81.91
16694;BME280;39538;52.196;9.892;2022-12-28T02:50:19;100566.28;;;4.48;82.13
16694;BME280;39538;52.196;9.892;2022-12-28T02:53:11;100558.44;;;4.47;82.54
16694;BME280;39538;52.196;9.892;2022-12-28T02:55:54;100550.19;;;4.54;81.93
16694;BME280;39538;52.196;9.892;2022-12-28T02:58:51;100546.47;;;4.60;81.91
16694;BME280;39538;52.196;9.892;2022-12-28T03:01:35;100534.94;;;4.62;81.53
16694;BME280;39538;52.196;9.892;2022-12-28T03:04:15;100526.91;;;4.65;81.67
16694;BME280;39538;52.196;9.892;2022-12-28T03:06:48;100534.59;;;4.70;81.34
16694;BME280;39538;52.196;9.892;2022-12-28T03:09:40;100533.00;;;4.66;81.79
16694;BME280;39538;52.196;9.892;2022-12-28T03:12:12;100524.28;;;4.65;82.10
16694;BME280;39538;52.196;9.892;2022-12-28T03:14:46;100529.06;;;4.76;81.75
16694;BME280;39538;52.196;9.892;2022-12-28T03:17:16;100526.63;;;4.72;81.84
16694;BME280;39538;52.196;9.892;2022-12-28T03:20:04;100521.09;;;4.78;82.03
16694;BME280;39538;52.196;9.892;2022-12-28T03:22:50;100518.53;;;4.76;82.85
16694;BME280;39538;52.196;9.892;2022-12-28T03:25:39;100507.72;;;4.63;84.34
16694;BME280;39538;52.196;9.892;2022-12-28T03:28:27;100500.91;;;4.59;85.56
16694;BME280;39538;52.196;9.892;2022-12-28T03:31:17;100490.59;;;4.55;85.77
16694;BME280;39538;52.196;9.892;2022-12-28T03:33:47;100476.56;;;4.54;85.79
16694;BME280;39538;52.196;9.892;2022-12-28T03:36:17;100472.00;;;4.59;85.79
16694;BME280;39538;52.196;9.892;2022-12-28T03:38:49;100482.50;;;4.59;85.87
16694;BME280;39538;52.196;9.892;2022-12-28T03:41:28;100475.31;;;4.63;86.29
16694;BME280;39538;52.196;9.892;2022-12-28T03:43:59;100470.03;;;4.63;86.37
16694;BME280;39538;52.196;9.892;2022-12-28T03:46:31;100477.16;;;4.61;86.89
16694;BME280;39538;52.196;9.892;2022-12-28T03:49:01;100465.94;;;4.57;88.06
16694;BME280;39538;52.196;9.892;2022-12-28T03:51:29;100460.06;;;4.52;89.09
16694;BME280;39538;52.196;9.892;2022-12-28T03:53:58;100459.25;;;4.50;89.81
16694;BME280;39538;52.196;9.892;2022-12-28T03:56:26;100455.28;;;4.41;90.48
16694;BME280;39538;52.196;9.892;2022-12-28T03:58:53;100449.97;;;4.43;90.94
16694;BME280;39538;52.196;9.892;2022-12-28T04:01:20;100454.34;;;4.42;90.85
16694;BME280;39538;52.196;9.892;2022-12-28T04:03:47;100437.72;;;4.42;91.08
16694;BME280;39538;52.196;9.892;2022-12-28T04:06:17;100429.84;;;4.42;91.53
16694;BME280;39538;52.196;9.892;2022-12-28T04:08:47;100416.63;;;4.43;90.77
16694;BME280;39538;52.196;9.892;2022-12-28T04:11:14;100410.09;;;4.52;90.62
16694;BME280;39538;52.196;9.892;2022-12-28T04:13:41;100398.41;;;4.58;89.95
16694;BME280;39538;52.196;9.892;2022-12-28T04:16:12;100392.16;;;4.60;90.24
16694;BME280;39538;52.196;9.892;2022-12-28T04:18:39;100386.63;;;4.67;89.26
16694;BME280;39538;52.196;9.892;2022-12-28T04:21:07;100383.06;;;4.68;89.23
16694;BME280;39538;52.196;9.892;2022-12-28T04:23:35;100371.47;;;4.72;89.01
16694;BME280;39538;52.196;9.892;2022-12-28T04:26:04;100368.66;;;4.75;88.77
16694;BME280;39538;52.196;9.892;2022-12-28T04:28:32;100357.16;;;4.77;88.35
16694;BME280;39538;52.196;9.892;2022-12-28T04:30:59;100355.00;;;4.85;88.09
16694;BME280;39538;52.196;9.892;2022-12-28T04:33:26;100341.63;;;4.90;88.08
16694;BME280;39538;52.196;9.892;2022-12-28T04:35:53;100340.44;;;4.96;87.70
16694;BME280;39538;52.196;9.892;2022-12-28T04:38:20;100341.16;;;4.99;87.44
16694;BME280;39538;52.196;9.892;2022-12-28T04:40:48;100327.78;;;5.04;87.13
16694;BME280;39538;52.196;9.892;2022-12-28T04:43:15;100326.66;;;5.08;86.97
16694;BME280;39538;52.196;9.892;2022-12-28T04:45:42;100320.25;;;5.14;87.12
16694;BME280;39538;52.196;9.892;2022-12-28T04:48:08;100307.72;;;5.19;86.61
16694;BME280;39538;52.196;9.892;2022-12-28T04:50:36;100303.06;;;5.24;86.60
16694;BME280;39538;52.196;9.892;2022-12-28T04:53:02;100299.50;;;5.25;86.31
16694;BME280;39538;52.196;9.892;2022-12-28T04:55:29;100290.00;;;5.22;86.53
16694;BME280;39538;52.196;9.892;2022-12-28T04:57:57;100281.84;;;5.27;86.30
16694;BME280;39538;52.196;9.892;2022-12-28T05:00:24;100293.84;;;5.33;86.18
16694;BME280;39538;52.196;9.892;2022-12-28T05:02:51;100286.78;;;5.33;86.47
16694;BME280;39538;52.196;9.892;2022-12-28T05:05:17;100288.50;;;5.34;86.89
16694;BME280;39538;52.196;9.892;2022-12-28T05:07:44;100276.09;;;5.36;87.23
16694;BME280;39538;52.196;9.892;2022-12-28T05:10:10;100280.44;;;5.37;87.01
16694;BME280;39538;52.196;9.892;2022-12-28T05:12:37;100278.50;;;5.41;87.23
16694;BME280;39538;52.196;9.892;2022-12-28T05:15:06;100286.63;;;5.36;87.84
16694;BME280;39538;52.196;9.892;2022-12-28T05:17:33;100267.09;;;5.40;87.70
16694;BME280;39538;52.196;9.892;2022-12-28T05:20:00;100269.59;;;5.43;88.02
16694;BME280;39538;52.196;9.892;2022-12-28T05:22:26;100261.69;;;5.43;88.16
16694;BME280;39538;52.196;9.892;2022-12-28T05:24:53;100255.47;;;5.44;88.22
16694;BME280;39538;52.196;9.892;2022-12-28T05:27:19;100263.38;;;5.44;88.19
16694;BME280;39538;52.196;9.892;2022-12-28T05:29:46;100263.31;;;5.46;88.48
16694;BME280;39538;52.196;9.892;2022-12-28T05:32:14;100259.66;;;5.48;88.24
16694;BME280;39538;52.196;9.892;2022-12-28T05:34:41;100252.84;;;5.44;88.34
16694;BME280;39538;52.196;9.892;2022-12-28T05:37:09;100247.41;;;5.47;88.45
16694;BME280;39538;52.196;9.892;2022-12-28T05:39:36;100241.13;;;5.50;87.94
16694;BME280;39538;52.196;9.892;2022-12-28T05:42:03;100248.09;;;5.51;88.23
16694;BME280;39538;52.196;9.892;2022-12-28T05:44:29;100240.97;;;5.53;88.40
16694;BME280;39538;52.196;9.892;2022-12-28T05:46:56;100238.22;;;5.55;88.29
16694;BME280;39538;52.196;9.892;2022-12-28T05:49:24;100239.94;;;5.56;88.04
16694;BME280;39538;52.196;9.892;2022-12-28T05:51:51;100239.78;;;5.59;88.19
16694;BME280;39538;52.196;9.892;2022-12-28T05:54:18;100240.78;;;5.56;88.10
16694;BME280;39538;52.196;9.892;2022-12-28T05:56:45;100239.09;;;5.55;88.28
16694;BME280;39538;52.196;9.892;2022-12-28T05:59:15;100243.19;;;5.61;88.15
16694;BME280;39538;52.196;9.892;2022-12-28T06:01:42;100249.81;;;5.68;87.83
16694;BME280;39538;52.196;9.892;2022-12-28T06:04:13;100242.75;;;5.68;87.64
16694;BME280;39538;52.196;9.892;2022-12-28T06:06:41;100237.09;;;5.76;87.56
16694;BME280;39538;52.196;9.892;2022-12-28T06:09:08;100229.19;;;5.76;87.88
16694;BME280;39538;52.196;9.892;2022-12-28T06:11:35;100228.41;;;5.74;87.91
16694;BME280;39538;52.196;9.892;2022-12-28T06:14:02;100225.00;;;5.72;87.66
16694;BME280;39538;52.196;9.892;2022-12-28T06:16:31;100237.22;;;5.73;87.93
16694;BME280;39538;52.196;9.892;2022-12-28T06:18:58;100241.84;;;5.85;87.27
16694;BME280;39538;52.196;9.892;2022-12-28T06:21:26;100216.34;;;5.86;87.62
16694;BME280;39538;52.196;9.892;2022-12-28T06:23:56;100213.88;;;5.83;87.63
16694;BME280;39538;52.196;9.892;2022-12-28T06:26:24;100220.78;;;5.85;88.00
16694;BME280;39538;52.196;9.892;2022-12-28T06:28:51;100204.78;;;5.88;88.21
16694;BME280;39538;52.196;9.892;2022-12-28T06:31:19;100199.50;;;5.88;88.59
16694;BME280;39538;52.196;9.892;2022-12-28T06:33:46;100195.91;;;5.89;89.03
16694;BME280;39538;52.196;9.892;2022-12-28T06:36:15;100202.16;;;5.88;89.66
16694;BME280;39538;52.196;9.892;2022-12-28T06:38:42;100199.78;;;5.84;90.49
16694;BME280;39538;52.196;9.892;2022-12-28T06:41:12;100191.16;;;5.80;91.61
16694;BME280;39538;52.196;9.892;2022-12-28T06:43:40;100192.13;;;5.79;91.97
16694;BME280;39538;52.196;9.892;2022-12-28T06:46:07;100198.16;;;5.81;92.50
16694;BME280;39538;52.196;9.892;2022-12-28T06:48:34;100186.09;;;5.77;93.28
16694;BME280;39538;52.196;9.892;2022-12-28T06:51:03;100188.78;;;5.76;93.50
16694;BME280;39538;52.196;9.892;2022-12-28T06:53:32;100172.16;;;5.75;94.20
16694;BME280;39538;52.196;9.892;2022-12-28T06:56:00;100184.56;;;5.73;94.53
16694;BME280;39538;52.196;9.892;2022-12-28T06:58:29;100168.50;;;5.78;94.63
16694;BME280;39538;52.196;9.892;2022-12-28T07:00:56;100173.34;;;5.85;93.93
16694;BME280;39538;52.196;9.892;2022-12-28T07:03:23;100170.44;;;5.90;93.51
16694;BME280;39538;52.196;9.892;2022-12-28T07:05:50;100174.13;;;5.87;94.61
16694;BME280;39538;52.196;9.892;2022-12-28T07:08:17;100163.13;;;5.79;95.63
16694;BME280;39538;52.196;9.892;2022-12-28T07:10:43;100161.78;;;5.72;96.16
16694;BME280;39538;52.196;9.892;2022-12-28T07:13:11;100161.09;;;5.68;96.91
16694;BME280;39538;52.196;9.892;2022-12-28T07:15:39;100155.56;;;5.73;97.01
16694;BME280;39538;52.196;9.892;2022-12-28T07:18:05;100148.69;;;5.70;98.69
16694;BME280;39538;52.196;9.892;2022-12-28T07:20:31;100152.97;;;5.57;100.00
16694;BME280;39538;52.196;9.892;2022-12-28T07:22:58;100153.31;;;5.51;100.00
16694;BME280;39538;52.196;9.892;2022-12-28T07:25:24;100161.63;;;5.43;100.00
16694;BME280;39538;52.196;9.892;2022-12-28T07:27:51;100166.22;;;5.40;100.00
16694;BME280;39538;52.196;9.892;2022-12-28T07:30:17;100156.88;;;5.34;100.00
16694;BME280;39538;52.196;9.892;2022-12-28T07:32:45;100163.66;;;5.38;100.00
16694;BME280;39538;52.196;9.892;2022-12-28T07:35:12;100162.81;;;5.38;100.00
16694;BME280;39538;52.196;9.892;2022-12-28T07:37:38;100155.84;;;5.37;100.00
16694;BME280;39538;52.196;9.892;2022-12-28T07:40:06;100168.00;;;5.39;100.00
16694;BME280;39538;52.196;9.892;2022-12-28T07:42:32;100168.84;;;5.40;100.00
16694;BME280;39538;52.196;9.892;2022-12-28T07:44:59;100150.75;;;5.49;100.00
16694;BME280;39538;52.196;9.892;2022-12-28T07:47:25;100161.72;;;5.58;100.00
16694;BME280;39538;52.196;9.892;2022-12-28T07:49:53;100157.38;;;5.57;100.00
16694;BME280;39538;52.196;9.892;2022-12-28T07:52:20;100155.34;;;5.62;100.00
16694;BME280;39538;52.196;9.892;2022-12-28T07:54:46;100154.81;;;5.71;100.00
16694;BME280;39538;52.196;9.892;2022-12-28T07:57:13;100148.53;;;5.74;100.00
16694;BME280;39538;52.196;9.892;2022-12-28T07:59:39;100156.19;;;5.78;100.00
16694;BME280;39538;52.196;9.892;2022-12-28T08:02:07;100163.97;;;5.80;100.00
16694;BME280;39538;52.196;9.892;2022-12-28T08:04:34;100171.63;;;5.84;100.00
16694;BME280;39538;52.196;9.892;2022-12-28T08:07:02;100181.91;;;5.89;100.00
16694;BME280;39538;52.196;9.892;2022-12-28T08:09:28;100181.66;;;5.94;100.00
16694;BME280;39538;52.196;9.892;2022-12-28T08:11:55;100161.28;;;5.97;100.00
16694;BME280;39538;52.196;9.892;2022-12-28T08:14:21;100158.53;;;5.99;100.00
16694;BME280;39538;52.196;9.892;2022-12-28T08:16:48;100162.13;;;5.98;100.00
16694;BME280;39538;52.196;9.892;2022-12-28T08:19:14;100164.59;;;6.01;100.00
16694;BME280;39538;52.196;9.892;2022-12-28T08:21:43;100154.47;;;6.09;100.00
16694;BME280;39538;52.196;9.892;2022-12-28T08:24:14;100160.50;;;6.11;100.00
16694;BME280;39538;52.196;9.892;2022-12-28T08:26:42;100148.81;;;6.15;100.00
16694;BME280;39538;52.196;9.892;2022-12-28T08:29:11;100158.31;;;6.18;100.00
16694;BME280;39538;52.196;9.892;2022-12-28T08:31:39;100154.78;;;6.19;100.00
16694;BME280;39538;52.196;9.892;2022-12-28T08:34:09;100145.00;;;6.21;100.00
16694;BME280;39538;52.196;9.892;2022-12-28T08:36:35;100146.69;;;6.22;100.00
16694;BME280;39538;52.196;9.892;2022-12-28T08:39:03;100153.66;;;6.23;100.00
16694;BME280;39538;52.196;9.892;2022-12-28T08:41:30;100142.84;;;6.27;100.00
16694;BME280;39538;52.196;9.892;2022-12-28T08:43:57;100141.81;;;6.30;100.00
16694;BME280;39538;52.196;9.892;2022-12-28T08:46:25;100164.44;;;6.34;100.00
16694;BME280;39538;52.196;9.892;2022-12-28T08:48:53;100167.66;;;6.39;100.00
16694;BME280;39538;52.196;9.892;2022-12-28T08:51:23;100154.34;;;6.41;100.00
16694;BME280;39538;52.196;9.892;2022-12-28T08:53:50;100161.16;;;6.45;100.00
16694;BME280;39538;52.196;9.892;2022-12-28T08:56:18;100167.25;;;6.45;100.00
16694;BME280;39538;52.196;9.892;2022-12-28T08:58:47;100171.69;;;6.45;100.00
16694;BME280;39538;52.196;9.892;2022-12-28T09:01:15;100166.22;;;6.48;99.71
16694;BME280;39538;52.196;9.892;2022-12-28T09:03:43;100169.81;;;6.47;99.92
16694;BME280;39538;52.196;9.892;2022-12-28T09:06:12;100163.44;;;6.51;100.00
16694;BME280;39538;52.196;9.892;2022-12-28T09:08:39;100186.22;;;6.52;99.69
16694;BME280;39538;52.196;9.892;2022-12-28T09:11:07;100184.34;;;6.54;99.61
16694;BME280;39538;52.196;9.892;2022-12-28T09:13:34;100178.88;;;6.57;99.69
16694;BME280;39538;52.196;9.892;2022-12-28T09:16:04;100182.28;;;6.59;99.60
16694;BME280;39538;52.196;9.892;2022-12-28T09:18:31;100177.75;;;6.61;99.16
16694;BME280;39538;52.196;9.892;2022-12-28T09:21:06;100173.81;;;6.68;99.44
16694;BME280;39538;52.196;9.892;2022-12-28T09:23:33;100183.25;;;6.72;99.34
16694;BME280;39538;52.196;9.892;2022-12-28T09:26:06;100182.28;;;6.73;99.27
16694;BME280;39538;52.196;9.892;2022-12-28T09:28:33;100167.13;;;6.77;98.99
16694;BME280;39538;52.196;9.892;2022-12-28T09:31:02;100170.34;;;6.82;98.72
16694;BME280;39538;52.196;9.892;2022-12-28T09:33:29;100165.75;;;6.86;98.91
16694;BME280;39538;52.196;9.892;2022-12-28T09:36:13;100177.13;;;6.86;98.82
16694;BME280;39538;52.196;9.892;2022-12-28T09:38:40;100173.53;;;6.87;98.92
16694;BME280;39538;52.196;9.892;2022-12-28T09:41:14;100179.50;;;6.91;98.58
16694;BME280;39538;52.196;9.892;2022-12-28T09:43:46;100177.63;;;6.93;99.03
16694;BME280;39538;52.196;9.892;2022-12-28T09:46:17;100193.25;;;6.96;99.24
16694;BME280;39538;52.196;9.892;2022-12-28T09:48:48;100184.13;;;7.02;98.99
16694;BME280;39538;52.196;9.892;2022-12-28T09:51:16;100189.84;;;7.08;99.34
16694;BME280;39538;52.196;9.892;2022-12-28T09:53:42;100187.06;;;7.11;98.76
16694;BME280;39538;52.196;9.892;2022-12-28T09:56:22;100181.38;;;7.17;98.80
16694;BME280;39538;52.196;9.892;2022-12-28T09:58:50;100173.66;;;7.14;99.54
16694;BME280;39538;52.196;9.892;2022-12-28T10:01:20;100186.84;;;7.14;99.81
16694;BME280;39538;52.196;9.892;2022-12-28T10:03:47;100183.44;;;7.12;100.00
16694;BME280;39538;52.196;9.892;2022-12-28T10:06:15;100188.66;;;7.14;100.00
16694;BME280;39538;52.196;9.892;2022-12-28T10:08:44;100190.25;;;7.16;100.00
16694;BME280;39538;52.196;9.892;2022-12-28T10:11:14;100180.91;;;7.11;100.00
16694;BME280;39538;52.196;9.892;2022-12-28T10:13:42;100180.53;;;7.17;100.00
16694;BME280;39538;52.196;9.892;2022-12-28T10:16:14;100192.97;;;7.15;100.00
16694;BME280;39538;52.196;9.892;2022-12-28T10:18:46;100182.25;;;7.18;100.00
16694;BME280;39538;52.196;9.892;2022-12-28T10:21:14;100191.00;;;7.18;100.00
16694;BME280;39538;52.196;9.892;2022-12-28T10:23:42;100175.25;;;7.17;100.00
16694;BME280;39538;52.196;9.892;2022-12-28T10:26:13;100180.72;;;7.14;100.00
16694;BME280;39538;52.196;9.892;2022-12-28T10:28:46;100179.22;;;7.10;100.00
16694;BME280;39538;52.196;9.892;2022-12-28T10:31:13;100176.28;;;7.14;100.00
16694;BME280;39538;52.196;9.892;2022-12-28T10:33:49;100177.25;;;7.13;100.00
16694;BME280;39538;52.196;9.892;2022-12-28T10:36:16;100171.84;;;7.15;100.00
16694;BME280;39538;52.196;9.892;2022-12-28T10:38:48;100164.06;;;7.13;100.00
16694;BME280;39538;52.196;9.892;2022-12-28T10:41:17;100161.41;;;7.13;100.00
16694;BME280;39538;52.196;9.892;2022-12-28T10:43:48;100163.84;;;7.16;100.00
16694;BME280;39538;52.196;9.892;2022-12-28T10:46:16;100157.59;;;7.17;100.00
16694;BME280;39538;52.196;9.892;2022-12-28T10:48:46;100159.88;;;7.24;100.00
16694;BME280;39538;52.196;9.892;2022-12-28T10:51:17;100161.19;;;7.31;100.00
16694;BME280;39538;52.196;9.892;2022-12-28T10:53:46;100144.75;;;7.40;100.00
16694;BME280;39538;52.196;9.892;2022-12-28T10:56:22;100138.16;;;7.47;100.00
16694;BME280;39538;52.196;9.892;2022-12-28T10:58:49;100143.13;;;7.52;100.00
16694;BME280;39538;52.196;9.892;2022-12-28T11:01:18;100140.19;;;7.56;100.00
16694;BME280;39538;52.196;9.892;2022-12-28T11:03:57;100144.53;;;7.57;100.00
16694;BME280;39538;52.196;9.892;2022-12-28T11:06:26;100136.59;;;7.57;100.00
16694;BME280;39538;52.196;9.892;2022-12-28T11:09:14;100138.84;;;7.64;100.00
16694;BME280;39538;52.196;9.892;2022-12-28T11:11:43;100136.59;;;7.57;100.00
16694;BME280;39538;52.196;9.892;2022-12-28T11:14:14;100133.03;;;7.58;100.00
16694;BME280;39538;52.196;9.892;2022-12-28T11:16:43;100116.22;;;7.59;100.00
16694;BME280;39538;52.196;9.892;2022-12-28T11:19:10;100121.72;;;7.56;100.00
16694;BME280;39538;52.196;9.892;2022-12-28T11:21:41;100116.03;;;7.63;100.00
16694;BME280;39538;52.196;9.892;2022-12-28T11:24:12;100111.00;;;7.72;100.00
16694;BME280;39538;52.196;9.892;2022-12-28T11:26:41;100119.16;;;7.82;100.00
16694;BME280;39538;52.196;9.892;2022-12-28T11:29:10;100104.59;;;7.89;100.00
16694;BME280;39538;52.196;9.892;2022-12-28T11:31:43;100108.97;;;7.90;100.00
16694;BME280;39538;52.196;9.892;2022-12-28T11:34:16;100101.66;;;7.94;100.00
16694;BME280;39538;52.196;9.892;2022-12-28T11:36:45;100104.22;;;7.95;100.00
16694;BME280;39538;52.196;9.892;2022-12-28T11:39:42;100100.81;;;7.93;100.00
16694;BME280;39538;52.196;9.892;2022-12-28T11:42:10;100093.41;;;7.98;100.00
16694;BME280;39538;52.196;9.892;2022-12-28T11:44:49;100095.44;;;7.95;100.00
16694;BME280;39538;52.196;9.892;2022-12-28T11:47:30;100096.06;;;7.98;100.00
16694;BME280;39538;52.196;9.892;2022-12-28T11:53:20;100089.19;;;7.96;100.00
16694;BME280;39538;52.196;9.892;2022-12-28T11:56:00;100093.03;;;8.05;100.00
16694;BME280;39538;52.196;9.892;2022-12-28T11:59:02;100096.06;;;7.98;100.00
16694;BME280;39538;52.196;9.892;2022-12-28T12:01:50;100087.81;;;8.03;100.00
16694;BME280;39538;52.196;9.892;2022-12-28T12:04:38;100071.22;;;8.01;100.00
16694;BME280;39538;52.196;9.892;2022-12-28T12:10:28;100079.88;;;7.90;100.00
16694;BME280;39538;52.196;9.892;2022-12-28T12:12:57;100077.94;;;7.79;100.00
16694;BME280;39538;52.196;9.892;2022-12-28T12:15:36;100071.75;;;7.66;100.00
16694;BME280;39538;52.196;9.892;2022-12-28T12:18:06;100068.88;;;7.56;100.00
16694;BME280;39538;52.196;9.892;2022-12-28T12:20:50;100069.47;;;7.47;100.00
16694;BME280;39538;52.196;9.892;2022-12-28T12:23:29;100073.16;;;7.45;100.00
16694;BME280;39538;52.196;9.892;2022-12-28T12:26:02;100068.94;;;7.42;100.00
16694;BME280;39538;52.196;9.892;2022-12-28T12:28:36;100072.50;;;7.41;100.00
16694;BME280;39538;52.196;9.892;2022-12-28T12:31:07;100062.38;;;7.48;100.00
16694;BME280;39538;52.196;9.892;2022-12-28T12:33:40;100059.88;;;7.46;100.00
16694;BME280;39538;52.196;9.892;2022-12-28T12:36:26;100063.25;;;7.48;100.00
16694;BME280;39538;52.196;9.892;2022-12-28T12:39:16;100052.28;;;7.54;100.00
16694;BME280;39538;52.196;9.892;2022-12-28T12:41:57;100052.72;;;7.61;100.00
16694;BME280;39538;52.196;9.892;2022-12-28T12:44:29;100054.84;;;7.69;100.00
16694;BME280;39538;52.196;9.892;2022-12-28T12:47:42;100053.63;;;7.74;100.00
16694;BME280;39538;52.196;9.892;2022-12-28T12:50:21;100046.84;;;7.83;100.00
16694;BME280;39538;52.196;9.892;2022-12-28T12:52:54;100047.19;;;7.91;100.00
16694;BME280;39538;52.196;9.892;2022-12-28T12:55:46;100051.44;;;7.94;100.00
16694;BME280;39538;52.196;9.892;2022-12-28T12:58:23;100040.16;;;8.05;100.00
16694;BME280;39538;52.196;9.892;2022-12-28T13:01:13;100037.81;;;8.13;100.00
16694;BME280;39538;52.196;9.892;2022-12-28T13:03:44;100043.94;;;8.13;100.00
16694;BME280;39538;52.196;9.892;2022-12-28T13:06:13;100038.91;;;8.23;100.00
16694;BME280;39538;52.196;9.892;2022-12-28T13:08:45;100030.97;;;8.23;100.00
16694;BME280;39538;52.196;9.892;2022-12-28T13:11:14;100028.72;;;8.30;100.00
16694;BME280;39538;52.196;9.892;2022-12-28T13:13:44;100028.09;;;8.26;99.88
16694;BME280;39538;52.196;9.892;2022-12-28T13:16:15;100020.78;;;8.30;99.13
16694;BME280;39538;52.196;9.892;2022-12-28T13:18:51;100014.25;;;8.35;99.19
16694;BME280;39538;52.196;9.892;2022-12-28T13:21:19;100010.09;;;8.31;98.87